createdAt,value
2022-10-05T00:01:21.160Z,96486.63
2022-10-05T00:04:21.987Z,96501.50
2022-10-05T00:07:13.893Z,96498.50
2022-10-05T00:10:00.435Z,96491.69
2022-10-05T00:12:47.528Z,96494.69
2022-10-05T00:15:33.495Z,96495.19
2022-10-05T00:18:20.992Z,96495.19
2022-10-05T00:21:27.096Z,96493.59
2022-10-05T00:24:19.813Z,96487.06
2022-10-05T00:27:19.095Z,96482.78
2022-10-05T00:30:19.970Z,96490.91
2022-10-05T00:33:05.945Z,96485.16
2022-10-05T00:35:51.859Z,96487.06
2022-10-05T00:38:37.987Z,96484.34
2022-10-05T00:41:55.777Z,96488.19
2022-10-05T00:44:56.586Z,96486.56
2022-10-05T00:48:20.681Z,96487.66
2022-10-05T00:51:28.021Z,96488.25
2022-10-05T00:54:29.096Z,96489.03
2022-10-05T00:57:24.112Z,96486.63
2022-10-05T01:00:15.738Z,96479.06
2022-10-05T01:03:28.015Z,96481.28
2022-10-05T01:06:26.016Z,96481.28
2022-10-05T01:09:18.800Z,96483.47
2022-10-05T01:12:32.901Z,96477.03
2022-10-05T01:15:33.661Z,96477.09
2022-10-05T01:18:28.359Z,96488.50
2022-10-05T01:21:21.485Z,96496.63
2022-10-05T01:24:29.393Z,96489.59
2022-10-05T01:27:41.937Z,96486.94
2022-10-05T01:30:35.946Z,96497.75
2022-10-05T01:33:25.425Z,96497.56
2022-10-05T01:36:16.951Z,96500.56
2022-10-05T01:39:20.590Z,96489.56
2022-10-05T01:42:37.493Z,96496.88
2022-10-05T01:45:51.009Z,96505.03
2022-10-05T01:48:47.769Z,96499.63
2022-10-05T01:51:47.703Z,96501.81
2022-10-05T01:55:06.123Z,96500.78
2022-10-05T01:57:56.043Z,96497.78
2022-10-05T02:01:06.793Z,96513.78
2022-10-05T02:04:01.056Z,96511.38
2022-10-05T02:06:50.697Z,96510.56
2022-10-05T02:09:52.006Z,96505.16
2022-10-05T02:12:38.903Z,96517.88
2022-10-05T02:15:35.927Z,96514.34
2022-10-05T02:18:27.417Z,96514.91
2022-10-05T02:21:13.706Z,96533.84
2022-10-05T02:24:05.295Z,96525.53
2022-10-05T02:26:52.664Z,96526.88
2022-10-05T02:29:43.072Z,96530.13
2022-10-05T02:32:35.442Z,96534.44
2022-10-05T02:35:23.081Z,96534.97
2022-10-05T02:38:13.211Z,96538.19
2022-10-05T02:41:08.727Z,96536.56
2022-10-05T02:44:14.227Z,96539.78
2022-10-05T02:47:09.752Z,96541.97
2022-10-05T02:50:28.198Z,96544.69
2022-10-05T02:53:27.697Z,96543.09
2022-10-05T02:56:18.978Z,96540.31
2022-10-05T02:59:14.174Z,96543.03
2022-10-05T03:02:25.053Z,96546.81
2022-10-05T03:05:14.482Z,96545.22
2022-10-05T03:08:20.066Z,96542.56
2022-10-05T03:12:00.392Z,96550.16
2022-10-05T03:15:18.866Z,96552.91
2022-10-05T03:18:45.274Z,96565.94
2022-10-05T03:22:06.780Z,96554.06
2022-10-05T03:25:31.503Z,96569.22
2022-10-05T03:28:32.894Z,96566.31
2022-10-05T03:31:19.666Z,96568.19
2022-10-05T03:34:15.914Z,96572.00
2022-10-05T03:37:28.136Z,96569.88
2022-10-05T03:40:28.650Z,96571.00
2022-10-05T03:43:52.268Z,96569.94
2022-10-05T03:46:56.894Z,96574.88
2022-10-05T03:50:21.466Z,96579.22
2022-10-05T03:53:30.215Z,96571.16
2022-10-05T03:56:51.632Z,96576.56
2022-10-05T04:00:01.645Z,96563.63
2022-10-05T04:02:56.422Z,96553.41
2022-10-05T04:05:50.722Z,96565.56
2022-10-05T04:08:55.114Z,96561.00
2022-10-05T04:11:58.453Z,96549.97
2022-10-05T04:14:50.508Z,96562.38
2022-10-05T04:17:43.171Z,96558.91
2022-10-05T04:20:45.216Z,96566.22
2022-10-05T04:23:35.435Z,96573.00
2022-10-05T04:26:45.718Z,96570.88
2022-10-05T04:29:34.999Z,96579.78
2022-10-05T04:32:43.816Z,96586.06
2022-10-05T04:35:44.653Z,96583.34
2022-10-05T04:38:37.850Z,96586.34
2022-10-05T04:41:29.969Z,96589.31
2022-10-05T04:44:27.206Z,96595.28
2022-10-05T04:47:36.430Z,96598.00
2022-10-05T04:50:37.667Z,96592.59
2022-10-05T04:53:56.835Z,96586.13
2022-10-05T04:56:53.204Z,96595.31
2022-10-05T05:00:11.548Z,96600.47
2022-10-05T05:03:04.847Z,96596.44
2022-10-05T05:06:17.432Z,96606.13
2022-10-05T05:09:24.682Z,96609.94
2022-10-05T05:12:15.859Z,96604.81
2022-10-05T05:15:07.535Z,96600.25
2022-10-05T05:18:05.592Z,96605.66
2022-10-05T05:21:09.710Z,96608.63
2022-10-05T05:24:20.993Z,96608.34
2022-10-05T05:27:20.205Z,96611.63
2022-10-05T05:30:22.840Z,96604.06
2022-10-05T05:33:23.610Z,96616.47
2022-10-05T05:36:23.719Z,96622.69
2022-10-05T05:40:00.428Z,96631.59
2022-10-05T05:42:59.819Z,96630.25
2022-10-05T05:45:59.428Z,96643.97
2022-10-05T05:48:46.821Z,96648.56
2022-10-05T05:51:37.527Z,96646.69
2022-10-05T05:54:39.619Z,96643.97
2022-10-05T05:57:48.856Z,96652.06
2022-10-05T06:00:44.646Z,96647.19
2022-10-05T06:03:38.193Z,96661.50
2022-10-05T06:06:25.716Z,96660.69
2022-10-05T06:09:21.580Z,96657.44
2022-10-05T06:12:23.206Z,96665.53
2022-10-05T06:15:40.154Z,96676.31
2022-10-05T06:18:27.537Z,96676.56
2022-10-05T06:21:27.762Z,96683.88
2022-10-05T06:24:26.659Z,96687.91
2022-10-05T06:27:36.723Z,96686.53
2022-10-05T06:30:23.561Z,96683.03
2022-10-05T06:33:36.995Z,96684.38
2022-10-05T06:36:48.907Z,96690.28
2022-10-05T06:39:46.366Z,96689.75
2022-10-05T06:42:54.024Z,96700.00
2022-10-05T06:46:07.280Z,96694.59
2022-10-05T06:49:19.971Z,96700.28
2022-10-05T06:52:34.635Z,96696.22
2022-10-05T06:55:36.324Z,96697.81
2022-10-05T06:58:22.958Z,96698.59
2022-10-05T07:01:23.981Z,96700.47
2022-10-05T07:04:23.614Z,96697.75
2022-10-05T07:07:41.616Z,96698.84
2022-10-05T07:10:33.963Z,96702.31
2022-10-05T07:13:27.972Z,96706.91
2022-10-05T07:16:53.709Z,96711.22
2022-10-05T07:19:42.569Z,96716.63
2022-10-05T07:23:06.941Z,96709.56
2022-10-05T07:26:01.263Z,96712.81
2022-10-05T07:28:52.984Z,96709.25
2022-10-05T07:32:08.648Z,96724.63
2022-10-05T07:34:55.181Z,96733.22
2022-10-05T07:37:58.032Z,96725.06
2022-10-05T07:40:54.651Z,96727.19
2022-10-05T07:44:05.027Z,96722.78
2022-10-05T07:47:00.855Z,96728.38
2022-10-05T07:49:56.184Z,96727.22
2022-10-05T07:52:48.678Z,96725.75
2022-10-05T07:55:42.540Z,96727.81
2022-10-05T07:58:37.035Z,96735.88
2022-10-05T08:01:29.718Z,96738.13
2022-10-05T08:04:27.761Z,96733.16
2022-10-05T08:07:16.943Z,96735.72
2022-10-05T08:10:31.828Z,96726.41
2022-10-05T08:13:47.350Z,96739.44
2022-10-05T08:16:36.186Z,96727.50
2022-10-05T08:19:40.317Z,96723.78
2022-10-05T08:22:31.552Z,96736.00
2022-10-05T08:25:55.839Z,96728.16
2022-10-05T08:28:47.052Z,96729.56
2022-10-05T08:31:34.156Z,96749.91
2022-10-05T08:34:27.697Z,96732.28
2022-10-05T08:37:22.771Z,96733.09
2022-10-05T08:40:14.407Z,96735.56
2022-10-05T08:43:24.861Z,96735.78
2022-10-05T08:46:40.137Z,96724.06
2022-10-05T08:49:35.492Z,96729.69
2022-10-05T08:52:26.000Z,96725.28
2022-10-05T08:55:17.626Z,96727.34
2022-10-05T08:58:31.216Z,96720.47
2022-10-05T09:01:45.267Z,96720.25
2022-10-05T09:04:34.796Z,96723.84
2022-10-05T09:07:36.898Z,96718.16
2022-10-05T09:10:50.083Z,96708.13
2022-10-05T09:13:38.909Z,96705.69
2022-10-05T09:16:45.116Z,96702.09
2022-10-05T09:19:53.853Z,96704.31
2022-10-05T09:22:59.137Z,96705.34
2022-10-05T09:26:08.923Z,96700.13
2022-10-05T09:29:10.694Z,96706.78
2022-10-05T09:32:16.675Z,96701.56
2022-10-05T09:35:25.765Z,96701.91
2022-10-05T09:38:17.662Z,96699.03
2022-10-05T09:41:32.242Z,96696.78
2022-10-05T09:44:41.538Z,96697.78
2022-10-05T09:47:36.654Z,96715.28
2022-10-05T09:50:44.448Z,96708.53
2022-10-05T09:54:01.233Z,96714.34
2022-10-05T09:56:56.183Z,96707.78
2022-10-05T10:00:04.086Z,96705.88
2022-10-05T10:03:13.409Z,96701.22
2022-10-05T10:06:10.486Z,96705.56
2022-10-05T10:08:58.017Z,96708.00
2022-10-05T10:12:21.088Z,96712.03
2022-10-05T10:15:25.997Z,96718.78
2022-10-05T10:18:27.277Z,96718.28
2022-10-05T10:21:45.652Z,96713.25
2022-10-05T10:25:04.090Z,96710.19
2022-10-05T10:28:02.077Z,96707.09
2022-10-05T10:31:06.358Z,96702.22
2022-10-05T10:33:58.662Z,96706.72
2022-10-05T10:37:42.415Z,96697.31
2022-10-05T10:40:34.998Z,96700.41
2022-10-05T10:44:02.636Z,96702.44
2022-10-05T10:47:20.028Z,96699.56
2022-10-05T10:50:45.036Z,96690.31
2022-10-05T10:54:03.566Z,96686.50
2022-10-05T10:57:35.858Z,96695.97
2022-10-05T11:00:35.280Z,96678.25
2022-10-05T11:03:33.199Z,96684.19
2022-10-05T11:06:43.705Z,96672.66
2022-10-05T11:09:32.497Z,96670.38
2022-10-05T11:12:55.573Z,96667.09
2022-10-05T11:15:48.074Z,96669.94
2022-10-05T11:18:56.533Z,96663.91
2022-10-05T11:21:55.091Z,96658.94
2022-10-05T11:25:03.141Z,96647.44
2022-10-05T11:28:04.734Z,96639.69
2022-10-05T11:30:51.744Z,96646.53
2022-10-05T11:34:03.599Z,96629.22
2022-10-05T11:37:08.813Z,96624.44
2022-10-05T11:40:21.616Z,96634.44
2022-10-05T11:43:30.682Z,96636.34
2022-10-05T11:46:16.405Z,96632.16
2022-10-05T11:49:21.508Z,96635.88
2022-10-05T11:52:19.031Z,96641.25
2022-10-05T11:55:25.156Z,96627.47
2022-10-05T11:58:22.099Z,96638.13
2022-10-05T12:01:23.007Z,96624.53
2022-10-05T12:04:42.345Z,96628.69
2022-10-05T12:07:29.504Z,96628.72
2022-10-05T12:10:45.057Z,96630.63
2022-10-05T12:13:39.396Z,96630.88
2022-10-05T12:16:41.624Z,96626.81
2022-10-05T12:19:41.324Z,96616.34
2022-10-05T12:22:59.713Z,96618.09
2022-10-05T12:26:02.464Z,96617.31
2022-10-05T12:28:53.628Z,96611.69
2022-10-05T12:31:55.352Z,96610.00
2022-10-05T12:34:51.676Z,96613.84
2022-10-05T12:38:04.083Z,96617.78
2022-10-05T12:41:04.479Z,96612.56
2022-10-05T12:43:56.472Z,96616.06
2022-10-05T12:47:23.812Z,96614.34
2022-10-05T12:50:21.304Z,96612.66
2022-10-05T12:53:43.299Z,96607.63
2022-10-05T12:56:32.321Z,96612.63
2022-10-05T12:59:38.841Z,96615.34
2022-10-05T13:02:43.241Z,96604.78
2022-10-05T13:05:28.893Z,96604.69
2022-10-05T13:08:39.062Z,96604.53
2022-10-05T13:11:49.089Z,96603.75
2022-10-05T13:15:00.598Z,96594.97
2022-10-05T13:18:12.687Z,96596.47
2022-10-05T13:21:13.153Z,96600.03
2022-10-05T13:24:08.941Z,96596.03
2022-10-05T13:27:01.061Z,96594.13
2022-10-05T13:29:58.933Z,96602.13
2022-10-05T13:32:53.534Z,96597.97
2022-10-05T13:36:09.555Z,96598.50
2022-10-05T13:39:20.307Z,96580.78
2022-10-05T13:42:19.305Z,96587.25
2022-10-05T13:45:30.554Z,96574.97
2022-10-05T13:48:41.498Z,96580.28
2022-10-05T13:52:03.460Z,96579.25
2022-10-05T13:55:05.504Z,96581.69
2022-10-05T13:57:57.577Z,96578.19
2022-10-05T14:00:56.023Z,96577.81
2022-10-05T14:04:21.255Z,96573.91
2022-10-05T14:07:39.195Z,96578.00
2022-10-05T14:10:40.535Z,96571.00
2022-10-05T14:13:35.819Z,96580.63
2022-10-05T14:16:26.316Z,96582.28
2022-10-05T14:19:40.309Z,96579.94
2022-10-05T14:22:27.213Z,96583.91
2022-10-05T14:25:18.134Z,96584.53
2022-10-05T14:28:37.705Z,96579.91
2022-10-05T14:31:35.815Z,96578.59
2022-10-05T14:34:35.012Z,96574.44
2022-10-05T14:37:24.763Z,96571.31
2022-10-05T14:40:35.297Z,96572.94
2022-10-05T14:43:21.387Z,96562.13
2022-10-05T14:46:16.905Z,96579.06
2022-10-05T14:49:21.827Z,96571.81
2022-10-05T14:52:32.660Z,96572.47
2022-10-05T14:55:42.739Z,96568.66
2022-10-05T14:59:16.621Z,96568.06
2022-10-05T15:02:27.470Z,96565.47
2022-10-05T15:05:26.790Z,96570.56
2022-10-05T15:08:41.510Z,96569.41
2022-10-05T15:11:40.501Z,96571.03
2022-10-05T15:14:34.511Z,96564.88
2022-10-05T15:17:27.662Z,96575.19
2022-10-05T15:20:33.811Z,96569.00
2022-10-05T15:23:42.873Z,96568.84
2022-10-05T15:26:41.199Z,96568.69
2022-10-05T15:30:05.202Z,96573.25
2022-10-05T15:33:01.180Z,96575.47
2022-10-05T15:36:06.543Z,96574.97
2022-10-05T15:39:33.267Z,96573.66
2022-10-05T15:42:25.786Z,96581.00
2022-10-05T15:45:34.426Z,96580.47
2022-10-05T15:48:49.386Z,96582.22
2022-10-05T15:51:50.293Z,96587.94
2022-10-05T15:54:58.355Z,96590.44
2022-10-05T15:58:20.358Z,96591.31
2022-10-05T16:01:11.870Z,96584.47
2022-10-05T16:04:14.528Z,96599.63
2022-10-05T16:07:20.817Z,96598.41
2022-10-05T16:10:15.597Z,96603.25
2022-10-05T16:13:07.354Z,96608.28
2022-10-05T16:16:11.982Z,96613.97
2022-10-05T16:18:58.615Z,96619.72
2022-10-05T16:21:55.092Z,96605.91
2022-10-05T16:25:27.476Z,96609.78
2022-10-05T16:28:16.209Z,96607.53
2022-10-05T16:31:06.791Z,96606.41
2022-10-05T16:33:55.835Z,96605.31
2022-10-05T16:37:05.012Z,96598.56
2022-10-05T16:39:57.324Z,96619.25
2022-10-05T16:42:52.616Z,96619.25
2022-10-05T16:45:57.047Z,96631.59
2022-10-05T16:48:48.747Z,96624.19
2022-10-05T16:51:53.183Z,96625.56
2022-10-05T16:54:47.500Z,96634.50
2022-10-05T16:57:41.309Z,96635.28
2022-10-05T17:00:47.128Z,96635.59
2022-10-05T17:03:42.240Z,96640.69
2022-10-05T17:06:39.105Z,96641.47
2022-10-05T17:10:03.233Z,96649.09
2022-10-05T17:13:07.949Z,96657.53
2022-10-05T17:16:00.753Z,96656.53
2022-10-05T17:19:10.450Z,96666.22
2022-10-05T17:22:00.796Z,96671.03
2022-10-05T17:24:55.118Z,96665.47
2022-10-05T17:28:15.352Z,96664.72
2022-10-05T17:31:13.846Z,96666.91
2022-10-05T17:33:59.634Z,96678.09
2022-10-05T17:36:57.740Z,96680.75
2022-10-05T17:39:50.508Z,96686.91
2022-10-05T17:42:39.708Z,96683.00
2022-10-05T17:45:34.537Z,96678.59
2022-10-05T17:48:55.543Z,96684.75
2022-10-05T17:52:00.134Z,96684.03
2022-10-05T17:55:08.625Z,96678.50
2022-10-05T17:57:59.996Z,96684.66
2022-10-05T18:01:07.772Z,96682.63
2022-10-05T18:03:53.687Z,96685.19
2022-10-05T18:06:52.755Z,96685.66
2022-10-05T18:09:55.288Z,96690.88
2022-10-05T18:12:46.009Z,96698.34
2022-10-05T18:15:31.835Z,96691.88
2022-10-05T18:18:32.989Z,96691.47
2022-10-05T18:21:28.781Z,96683.91
2022-10-05T18:24:18.547Z,96692.66
2022-10-05T18:27:34.121Z,96695.50
2022-10-05T18:30:24.880Z,96696.09
2022-10-05T18:33:14.000Z,96694.47
2022-10-05T18:36:27.833Z,96701.94
2022-10-05T18:39:23.865Z,96707.13
2022-10-05T18:42:25.327Z,96712.06
2022-10-05T18:45:17.012Z,96719.69
2022-10-05T18:48:32.410Z,96722.00
2022-10-05T18:51:18.162Z,96723.69
2022-10-05T18:54:25.246Z,96715.50
2022-10-05T18:57:34.628Z,96727.78
2022-10-05T19:00:22.729Z,96723.50
2022-10-05T19:03:37.227Z,96727.72
2022-10-05T19:06:58.608Z,96742.16
2022-10-05T19:10:08.765Z,96740.66
2022-10-05T19:13:10.977Z,96749.91
2022-10-05T19:16:18.668Z,96747.03
2022-10-05T19:19:30.728Z,96748.53
2022-10-05T19:23:08.452Z,96752.38
2022-10-05T19:26:08.493Z,96757.38
2022-10-05T19:29:22.757Z,96756.84
2022-10-05T19:32:16.630Z,96755.31
2022-10-05T19:35:13.693Z,96760.50
2022-10-05T19:38:25.734Z,96764.59
2022-10-05T19:41:37.457Z,96765.78
2022-10-05T19:44:35.368Z,96762.63
2022-10-05T19:47:30.192Z,96763.75
2022-10-05T19:50:37.757Z,96771.44
2022-10-05T19:53:36.343Z,96778.53
2022-10-05T19:56:23.370Z,96772.09
2022-10-05T19:59:18.627Z,96777.59
2022-10-05T20:02:04.772Z,96777.09
2022-10-05T20:04:54.915Z,96772.22
2022-10-05T20:07:41.373Z,96770.66
2022-10-05T20:10:29.699Z,96768.28
2022-10-05T20:13:22.787Z,96783.81
2022-10-05T20:16:35.830Z,96781.13
2022-10-05T20:19:51.439Z,96788.50
2022-10-05T20:22:48.696Z,96789.56
2022-10-05T20:25:37.314Z,96793.66
2022-10-05T20:28:31.346Z,96793.16
2022-10-05T20:31:20.232Z,96790.44
2022-10-05T20:34:06.459Z,96795.91
2022-10-05T20:36:52.588Z,96792.75
2022-10-05T20:39:39.398Z,96784.38
2022-10-05T20:42:26.216Z,96796.28
2022-10-05T20:45:13.196Z,96798.72
2022-10-05T20:47:59.181Z,96793.91
2022-10-05T20:50:44.856Z,96789.03
2022-10-05T20:53:31.025Z,96793.41
2022-10-05T20:56:16.722Z,96793.44
2022-10-05T20:59:02.553Z,96788.34
2022-10-05T21:01:48.467Z,96777.84
2022-10-05T21:04:41.696Z,96780.28
2022-10-05T21:07:27.771Z,96778.44
2022-10-05T21:10:14.317Z,96778.47
2022-10-05T21:13:03.253Z,96770.38
2022-10-05T21:15:49.021Z,96772.03
2022-10-05T21:18:35.229Z,96765.00
2022-10-05T21:21:22.570Z,96762.88
2022-10-05T21:24:46.810Z,96766.69
2022-10-05T21:27:37.195Z,96760.75
2022-10-05T21:30:23.105Z,96768.34
2022-10-05T21:33:08.769Z,96767.28
2022-10-05T21:35:54.637Z,96770.53
2022-10-05T21:38:55.510Z,96761.94
2022-10-05T21:41:41.339Z,96764.09
2022-10-05T21:44:27.040Z,96770.84
2022-10-05T21:47:13.145Z,96763.59
2022-10-05T21:50:00.433Z,96773.34
2022-10-05T21:52:46.502Z,96761.47
2022-10-05T21:55:33.738Z,96758.25
2022-10-05T21:58:21.417Z,96767.97
2022-10-05T22:01:39.417Z,96771.22
2022-10-05T22:04:25.312Z,96768.53
2022-10-05T22:07:40.724Z,96762.06
2022-10-05T22:10:27.209Z,96764.22
2022-10-05T22:18:17.651Z,96766.97
2022-10-05T22:22:13.149Z,96768.06
2022-10-05T22:24:58.958Z,96759.44
2022-10-05T22:27:45.256Z,96765.91
2022-10-05T22:30:31.616Z,96771.88
2022-10-05T22:33:17.401Z,96766.47
2022-10-05T22:36:03.877Z,96768.38
2022-10-05T22:39:57.251Z,96768.94
2022-10-05T22:42:43.219Z,96763.25
2022-10-05T22:45:32.466Z,96765.94
2022-10-05T22:48:18.820Z,96764.31
2022-10-05T22:51:05.031Z,96771.91
2022-10-05T22:53:50.750Z,96756.78
2022-10-05T22:56:36.486Z,96753.00
2022-10-05T22:59:22.805Z,96752.19
2022-10-05T23:02:08.859Z,96755.16
2022-10-05T23:04:55.001Z,96760.56
2022-10-05T23:07:43.467Z,96760.56
2022-10-05T23:10:29.586Z,96756.78
2022-10-05T23:13:22.474Z,96751.91
2022-10-05T23:16:11.065Z,96749.75
2022-10-05T23:18:57.748Z,96749.75
2022-10-05T23:21:43.581Z,96762.19
2022-10-05T23:24:29.351Z,96753.00
2022-10-05T23:27:15.117Z,96753.00
2022-10-05T23:30:00.771Z,96757.88
2022-10-05T23:32:46.334Z,96750.28
2022-10-05T23:35:32.239Z,96744.91
2022-10-05T23:38:18.248Z,96751.91
2022-10-05T23:41:05.292Z,96757.88
2022-10-05T23:43:51.280Z,96760.59
2022-10-05T23:46:37.207Z,96757.88
2022-10-05T23:49:23.171Z,96762.47
2022-10-05T23:52:46.292Z,96760.03
2022-10-05T23:55:33.990Z,96750.88
2022-10-05T23:58:20.701Z,96756.78
